Time;durP1;ratioP1;P1;durP2;ratioP2;P2;SDS_P1;SDS_P2;PMS_P1;PMS_P2;Temp;Humidity;BMP_temperature;BMP_pressure;BME280_temperature;BME280_humidity;BME280_pressure;Samples;Min_cycle;Max_cycle;Signal;HPM_P1;HPM_P2
2023/10/10 00:00:04;;;;;;;3.67;1.80;;;;;;;8.57;nan;101117.72;2116745;27;20187;-74
2023/10/10 00:01:17;;;;;;;4.00;1.73;;;;;;;8.53;nan;101119.25;2115898;28;20235;-74
2023/10/10 00:02:24;;;;;;;5.40;1.88;;;;;;;8.54;nan;101112.84;2115927;28;20036;-74
2023/10/10 00:03:30;;;;;;;3.88;2.10;;;;;;;8.51;nan;101117.88;2115802;28;20393;-74
2023/10/10 00:04:33;;;;;;;5.55;1.92;;;;;;;8.52;nan;101109.59;2099766;28;20025;-75
2023/10/10 00:05:36;;;;;;;5.28;2.10;;;;;;;8.52;nan;101112.28;2089984;28;21128;-75
2023/10/10 00:06:39;;;;;;;4.65;2.30;;;;;;;8.55;nan;101113.66;2090499;28;20875;-74
2023/10/10 00:07:46;;;;;;;3.13;1.52;;;;;;;8.54;nan;101120.88;2099115;28;20060;-74
2023/10/10 00:08:50;;;;;;;3.08;1.70;;;;;;;8.54;nan;101107.50;2092561;28;20892;-75
2023/10/10 00:09:52;;;;;;;5.25;2.20;;;;;;;8.53;nan;101111.19;2107255;28;20043;-74
2023/10/10 00:10:55;;;;;;;4.65;2.20;;;;;;;8.51;nan;101118.72;2090951;28;20033;-75
2023/10/10 00:12:00;;;;;;;3.97;1.80;;;;;;;8.50;nan;101118.94;2099669;28;20037;-75
2023/10/10 00:13:04;;;;;;;3.90;1.90;;;;;;;8.45;nan;101108.97;2099417;28;20200;-74
2023/10/10 00:14:06;;;;;;;5.38;1.70;;;;;;;8.46;nan;101107.91;2091271;28;20205;-75
2023/10/10 00:15:20;;;;;;;5.60;1.85;;;;;;;8.44;nan;101107.34;2099581;28;20041;-75
2023/10/10 00:16:26;;;;;;;5.22;1.77;;;;;;;8.44;nan;101109.22;2100691;28;20966;-75
2023/10/10 00:17:34;;;;;;;3.92;1.90;;;;;;;8.43;nan;101105.75;2099986;28;20025;-75
2023/10/10 00:18:43;;;;;;;2.90;1.65;;;;;;;8.40;nan;101106.25;2107784;28;20235;-75
2023/10/10 00:19:55;;;;;;;6.78;2.20;;;;;;;8.39;nan;101104.63;2107787;28;20322;-75
2023/10/10 00:21:09;;;;;;;5.72;2.00;;;;;;;8.41;nan;101110.53;2106591;28;20346;-75
2023/10/10 00:22:11;;;;;;;5.57;2.00;;;;;;;8.40;nan;101106.25;2083992;28;20853;-75
2023/10/10 00:23:16;;;;;;;5.75;1.95;;;;;;;8.39;nan;101107.31;2090825;28;20026;-74
2023/10/10 00:24:52;;;;;;;4.75;1.98;;;;;;;8.37;nan;101106.69;2106718;28;20286;-74
2023/10/10 00:25:49;;;;;;;3.83;2.00;;;;;;;8.38;nan;101103.00;2108046;28;20865;-74
2023/10/10 00:26:53;;;;;;;5.38;2.22;;;;;;;8.38;nan;101108.34;2107325;28;20324;-75
2023/10/10 00:27:59;;;;;;;5.40;2.45;;;;;;;8.37;nan;101096.00;2099084;28;20255;-75
2023/10/10 00:29:08;;;;;;;8.32;2.85;;;;;;;8.32;nan;101095.91;2091681;28;21037;-74
2023/10/10 00:30:12;;;;;;;4.97;2.30;;;;;;;8.39;nan;101103.81;2101704;28;20988;-74
2023/10/10 00:31:20;;;;;;;4.18;1.95;;;;;;;8.36;nan;101103.22;2091265;28;20037;-74
2023/10/10 00:32:22;;;;;;;5.55;1.90;;;;;;;8.37;nan;101104.03;2085540;28;20116;-74
2023/10/10 00:33:24;;;;;;;4.60;2.10;;;;;;;8.37;nan;101101.34;2091107;28;20311;-75
2023/10/10 00:34:33;;;;;;;4.90;2.20;;;;;;;8.33;nan;101103.72;2082521;28;20279;-74
2023/10/10 00:35:35;;;;;;;2.97;1.70;;;;;;;8.31;nan;101102.34;2086124;28;20246;-76
2023/10/10 00:36:36;;;;;;;4.05;2.00;;;;;;;8.29;nan;101099.09;2097892;28;20035;-75
2023/10/10 00:37:38;;;;;;;2.45;1.52;;;;;;;8.28;nan;101100.16;2107061;28;20227;-75
2023/10/10 00:38:42;;;;;;;5.22;2.13;;;;;;;8.31;nan;101110.38;2098852;28;20231;-75
2023/10/10 00:39:52;;;;;;;5.25;1.85;;;;;;;8.30;nan;101112.25;2099177;28;20236;-75
2023/10/10 00:40:57;;;;;;;5.28;2.38;;;;;;;8.29;nan;101110.66;2100395;28;20309;-74
2023/10/10 00:42:19;;;;;;;3.60;1.92;;;;;;;8.29;nan;101102.59;2100135;28;20266;-74
2023/10/10 00:43:27;;;;;;;3.63;1.90;;;;;;;8.28;nan;101108.19;2096408;28;20276;-73
2023/10/10 00:44:28;;;;;;;6.47;2.03;;;;;;;8.26;nan;101105.78;2090931;28;20067;-73
2023/10/10 00:45:35;;;;;;;6.55;2.15;;;;;;;8.23;nan;101102.78;2107547;28;20939;-74
2023/10/10 00:46:37;;;;;;;4.63;2.05;;;;;;;8.22;nan;101106.50;2115215;28;20075;-73
2023/10/10 00:47:43;;;;;;;4.43;2.17;;;;;;;8.19;nan;101105.13;2098688;28;20200;-73
2023/10/10 00:48:48;;;;;;;4.13;2.10;;;;;;;8.18;nan;101108.88;2092333;28;20046;-74
2023/10/10 00:49:50;;;;;;;3.80;1.65;;;;;;;8.14;nan;101102.41;2090225;28;20034;-74
2023/10/10 00:51:05;;;;;;;4.45;1.98;;;;;;;8.19;nan;101109.69;2074800;28;21060;-74
2023/10/10 00:52:07;;;;;;;3.67;2.00;;;;;;;8.20;nan;101105.97;2092139;28;20902;-74
2023/10/10 00:53:12;;;;;;;4.97;2.30;;;;;;;8.21;nan;101102.22;2082280;28;20209;-74
2023/10/10 00:55:25;;;;;;;4.13;1.92;;;;;;;8.24;nan;101101.72;2098500;28;20298;-74
2023/10/10 00:56:30;;;;;;;4.78;2.00;;;;;;;8.28;nan;101102.84;2091104;28;20021;-74
2023/10/10 00:57:35;;;;;;;4.18;2.00;;;;;;;8.27;nan;101098.56;2099760;28;20248;-75
2023/10/10 00:58:37;;;;;;;5.68;1.80;;;;;;;8.27;nan;101101.22;2099555;28;21075;-74
2023/10/10 00:59:43;;;;;;;6.85;2.00;;;;;;;8.26;nan;101104.94;2098463;28;20299;-72
2023/10/10 01:00:47;;;;;;;3.47;1.83;;;;;;;8.24;nan;101104.41;2091467;28;20773;-73
2023/10/10 01:01:49;;;;;;;2.83;1.65;;;;;;;8.23;nan;101103.59;2082881;28;20092;-72
2023/10/10 01:03:06;;;;;;;6.10;1.88;;;;;;;8.23;nan;101103.59;2099077;28;20021;-74
2023/10/10 01:04:10;;;;;;;4.75;1.80;;;;;;;8.24;nan;101104.41;2092660;28;20328;-72
2023/10/10 01:05:12;;;;;;;5.20;1.92;;;;;;;8.27;nan;101109.28;2091343;28;20022;-72
2023/10/10 01:06:24;;;;;;;4.85;1.90;;;;;;;8.30;nan;101108.78;2105491;28;20240;-72
2023/10/10 01:07:25;;;;;;;3.85;1.65;;;;;;;8.28;nan;101108.19;2091765;28;21040;-72
2023/10/10 01:08:30;;;;;;;3.67;1.83;;;;;;;8.28;nan;101109.00;2090397;28;20040;-74
2023/10/10 01:09:33;;;;;;;2.80;1.63;;;;;;;8.29;nan;101105.28;2099950;28;20931;-73
2023/10/10 01:10:43;;;;;;;2.95;1.60;;;;;;;8.29;nan;101109.81;2098955;28;20254;-71
2023/10/10 01:11:49;;;;;;;6.00;1.80;;;;;;;8.28;nan;101114.38;2085472;28;20249;-71
2023/10/10 01:12:50;;;;;;;3.60;1.60;;;;;;;8.28;nan;101114.38;2082148;28;20320;-71
2023/10/10 01:13:52;;;;;;;3.78;1.73;;;;;;;8.30;nan;101114.13;2074617;28;20393;-71
2023/10/10 01:14:57;;;;;;;4.32;1.75;;;;;;;8.32;nan;101109.31;2090474;28;20340;-71
2023/10/10 01:16:05;;;;;;;3.75;1.80;;;;;;;8.32;nan;101112.00;2099015;28;20043;-71
2023/10/10 01:17:11;;;;;;;3.05;1.65;;;;;;;8.35;nan;101114.16;2098740;28;20243;-71
2023/10/10 01:18:17;;;;;;;4.82;1.92;;;;;;;8.36;nan;101111.25;2092580;28;20176;-71
2023/10/10 01:19:22;;;;;;;5.43;2.15;;;;;;;8.34;nan;101108.00;2099665;28;20115;-71
2023/10/10 01:20:46;;;;;;;4.20;1.95;;;;;;;8.36;nan;101113.94;2082815;28;20249;-71
2023/10/10 01:21:50;;;;;;;4.63;1.70;;;;;;;8.36;nan;101108.56;2090945;28;20204;-71
2023/10/10 01:22:56;;;;;;;4.85;1.95;;;;;;;8.38;nan;101107.50;2082924;28;20140;-71
2023/10/10 01:24:11;;;;;;;4.10;2.10;;;;;;;8.40;nan;101111.59;2090942;28;20240;-71
2023/10/10 01:26:37;;;;;;;3.05;1.77;;;;;;;8.38;nan;101107.50;2088009;28;20870;-71
2023/10/10 01:27:43;;;;;;;4.22;1.80;;;;;;;8.36;nan;101111.25;2091868;28;20216;-71
2023/10/10 01:28:46;;;;;;;5.00;1.77;;;;;;;8.36;nan;101113.13;2090781;28;20026;-71
2023/10/10 01:30:16;;;;;;;3.78;1.90;;;;;;;8.37;nan;101117.44;2082850;28;20034;-71
2023/10/10 01:31:17;;;;;;;3.85;1.83;;;;;;;8.36;nan;101121.16;2093477;28;20236;-71
2023/10/10 01:32:19;;;;;;;3.25;1.75;;;;;;;8.34;nan;101117.91;2100454;28;20400;-71
2023/10/10 01:33:41;;;;;;;4.25;1.88;;;;;;;8.31;nan;101113.88;2107097;28;20262;-71
2023/10/10 01:34:43;;;;;;;2.92;1.60;;;;;;;8.30;nan;101116.81;2101548;28;20036;-71
2023/10/10 01:35:46;;;;;;;3.42;1.83;;;;;;;8.28;nan;101110.88;2106742;28;20215;-72
2023/10/10 01:36:50;;;;;;;3.22;2.03;;;;;;;8.26;nan;101116.50;2105584;28;20154;-72
2023/10/10 01:37:54;;;;;;;3.50;1.50;;;;;;;8.25;nan;101114.06;2099141;28;20863;-79
2023/10/10 01:38:56;;;;;;;4.28;2.03;;;;;;;8.23;nan;101124.19;2099049;28;20875;-74
2023/10/10 01:40:15;;;;;;;3.35;1.70;;;;;;;8.22;nan;101123.41;2090546;28;20040;-74
2023/10/10 01:41:31;;;;;;;4.53;1.90;;;;;;;8.24;nan;101120.47;2092118;28;20209;-73
2023/10/10 01:42:37;;;;;;;4.30;2.05;;;;;;;8.22;nan;101130.63;2103598;28;20927;-74
2023/10/10 01:43:45;;;;;;;3.60;1.67;;;;;;;8.19;nan;101123.09;2098365;28;20201;-74
2023/10/10 01:44:47;;;;;;;5.85;2.30;;;;;;;8.15;nan;101120.09;2084206;28;20041;-74
2023/10/10 01:46:08;;;;;;;4.30;2.08;;;;;;;8.14;nan;101123.84;2082193;28;20272;-74
2023/10/10 01:47:19;;;;;;;3.00;1.85;;;;;;;8.13;nan;101115.00;2096178;28;20290;-74
2023/10/10 01:48:24;;;;;;;5.80;2.28;;;;;;;8.12;nan;101113.38;2099919;28;20272;-74
2023/10/10 01:52:56;;;;;;;3.65;2.00;;;;;;;8.16;nan;101120.91;2106822;28;20147;-74
2023/10/10 01:54:14;;;;;;;;;;;;;;;8.17;nan;101119.88;2103353;28;20203;-74
2023/10/10 01:55:22;;;;;;;3.17;1.83;;;;;;;8.19;nan;101123.09;2099282;28;19913;-75
2023/10/10 01:56:26;;;;;;;5.60;1.70;;;;;;;8.20;nan;101122.03;2097191;28;20215;-74
2023/10/10 01:57:28;;;;;;;4.07;1.90;;;;;;;8.22;nan;101114.56;2075315;28;20213;-74
2023/10/10 01:58:36;;;;;;;4.03;1.60;;;;;;;8.22;nan;101118.03;2091686;28;20764;-74
2023/10/10 01:59:38;;;;;;;3.78;1.67;;;;;;;8.21;nan;101108.38;2098704;28;20075;-77
2023/10/10 02:00:46;;;;;;;6.63;1.90;;;;;;;8.24;nan;101112.44;2082005;28;20042;-78
2023/10/10 02:01:48;;;;;;;3.03;1.70;;;;;;;8.25;nan;101109.50;2084858;28;20081;-78
2023/10/10 02:02:50;;;;;;;3.45;1.75;;;;;;;8.22;nan;101111.88;2090499;28;21063;-78
2023/10/10 02:03:53;;;;;;;4.88;1.92;;;;;;;8.22;nan;101111.88;2090606;28;20194;-78
2023/10/10 02:05:00;;;;;;;4.50;2.00;;;;;;;8.21;nan;101112.94;2099480;28;20248;-73
2023/10/10 02:06:03;;;;;;;4.65;2.17;;;;;;;8.22;nan;101107.31;2107608;28;20037;-74
2023/10/10 02:07:14;;;;;;;3.25;1.90;;;;;;;8.21;nan;101108.38;2093373;28;20264;-74
2023/10/10 02:08:17;;;;;;;4.88;2.28;;;;;;;8.19;nan;101109.69;2092400;28;20304;-74
2023/10/10 02:09:27;;;;;;;3.65;1.90;;;;;;;8.22;nan;101111.88;2098929;28;20245;-74
2023/10/10 02:10:32;;;;;;;;;;;;;;;8.21;nan;101112.94;2091959;28;20233;-73
2023/10/10 02:11:34;;;;;;;4.28;2.10;;;;;;;8.23;nan;101116.16;2099374;28;19915;-71
2023/10/10 02:12:38;;;;;;;3.97;2.00;;;;;;;8.23;nan;101117.00;2089827;28;21103;-72
2023/10/10 02:13:44;;;;;;;4.10;1.90;;;;;;;8.17;nan;101109.16;2091851;28;20224;-73
2023/10/10 02:14:48;;;;;;;4.10;1.80;;;;;;;8.21;nan;101118.31;2099211;28;20236;-72
2023/10/10 02:15:51;;;;;;;5.00;2.25;;;;;;;8.21;nan;101119.09;2098515;28;20196;-72
2023/10/10 02:17:08;;;;;;;5.07;2.10;;;;;;;8.20;nan;101124.72;2099127;28;20244;-73
2023/10/10 02:18:13;;;;;;;4.35;1.90;;;;;;;8.19;nan;101120.41;2100731;28;20197;-72
2023/10/10 02:19:25;;;;;;;4.57;2.08;;;;;;;8.17;nan;101117.19;2098370;28;20353;-72
2023/10/10 02:21:42;;;;;;;3.70;1.98;;;;;;;8.18;nan;101124.97;2098238;28;20780;-73
2023/10/10 02:22:51;;;;;;;6.43;2.58;;;;;;;8.18;nan;101118.78;2099644;28;20327;-73
2023/10/10 02:23:53;;;;;;;5.40;2.22;;;;;;;8.22;nan;101115.34;2100868;28;20851;-72
2023/10/10 02:26:35;;;;;;;4.40;2.10;;;;;;;8.27;nan;101117.31;2095863;28;20259;-74
2023/10/10 02:27:54;;;;;;;4.32;1.98;;;;;;;8.30;nan;101116.81;2101028;28;20298;-73
2023/10/10 02:30:22;;;;;;;;;;;;;;;8.31;nan;101116.53;2101448;28;21002;-73
2023/10/10 02:31:28;;;;;;;4.95;2.00;;;;;;;8.32;nan;101120.03;2105547;28;19980;-73
2023/10/10 02:32:35;;;;;;;7.35;2.20;;;;;;;8.32;nan;101117.34;2090024;28;20286;-73
2023/10/10 02:33:37;;;;;;;5.65;2.42;;;;;;;8.32;nan;101120.03;2075662;28;20221;-73
2023/10/10 02:34:51;;;;;;;4.05;2.00;;;;;;;8.30;nan;101122.16;2091024;28;21087;-73
2023/10/10 02:35:56;;;;;;;3.45;2.00;;;;;;;8.27;nan;101117.31;2106630;28;21033;-72
2023/10/10 02:37:13;;;;;;;4.45;1.92;;;;;;;8.29;nan;101109.81;2097715;28;20982;-72
2023/10/10 02:38:16;;;;;;;3.75;1.75;;;;;;;8.29;nan;101113.31;2094012;28;20033;-72
2023/10/10 02:40:30;;;;;;;4.75;2.00;;;;;;;8.30;nan;101116.81;2081825;28;20136;-72
2023/10/10 02:41:48;;;;;;;2.80;1.80;;;;;;;8.29;nan;101115.16;2091709;28;20244;-74
2023/10/10 02:43:09;;;;;;;4.95;2.00;;;;;;;8.28;nan;101113.56;2077641;28;20250;-72
2023/10/10 02:44:25;;;;;;;4.22;2.13;;;;;;;8.29;nan;101109.81;2087494;28;20060;-72
2023/10/10 02:45:28;;;;;;;4.03;2.08;;;;;;;8.29;nan;101115.16;2083738;28;20230;-72
2023/10/10 02:46:35;;;;;;;4.28;1.80;;;;;;;8.28;nan;101109.00;2073718;28;20420;-72
2023/10/10 02:47:45;;;;;;;4.10;2.22;;;;;;;8.26;nan;101099.59;2077107;28;20179;-72
2023/10/10 02:48:55;;;;;;;6.00;1.90;;;;;;;8.28;nan;101113.56;2091882;28;20977;-72
2023/10/10 02:50:44;;;;;;;4.90;2.03;;;;;;;8.25;nan;101103.34;2090992;28;20240;-72
2023/10/10 02:51:22;;;;;;;5.00;1.92;;;;;;;8.23;nan;101106.28;2083581;28;20036;-73
2023/10/10 02:52:26;;;;;;;5.78;1.95;;;;;;;8.22;nan;101109.19;2092543;28;20315;-73
2023/10/10 02:53:32;;;;;;;4.63;2.00;;;;;;;8.19;nan;101105.13;2098358;28;20331;-71
2023/10/10 02:55:50;;;;;;;4.75;2.38;;;;;;;8.17;nan;101111.81;2106753;28;20330;-71
2023/10/10 02:56:57;;;;;;;4.30;2.13;;;;;;;8.15;nan;101114.75;2086134;28;20459;-72
2023/10/10 02:58:20;;;;;;;3.63;2.08;;;;;;;8.13;nan;101106.97;2099083;28;20232;-71
2023/10/10 02:59:31;;;;;;;8.27;2.17;;;;;;;8.11;nan;101108.28;2095644;28;20358;-71
2023/10/10 03:00:34;;;;;;;3.58;2.00;;;;;;;8.06;nan;101106.31;2100280;28;20256;-71
2023/10/10 03:02:58;;;;;;;6.70;2.25;;;;;;;8.03;nan;101112.16;2097533;28;20259;-71
2023/10/10 03:04:03;;;;;;;4.00;1.90;;;;;;;8.03;nan;101103.31;2107199;28;20127;-71
2023/10/10 03:05:06;;;;;;;5.32;2.10;;;;;;;8.04;nan;101102.25;2089948;28;20029;-70
2023/10/10 03:06:10;;;;;;;5.55;1.85;;;;;;;8.05;nan;101104.72;2074437;28;20124;-70
2023/10/10 03:07:19;;;;;;;3.60;1.90;;;;;;;8.03;nan;101100.66;2082860;28;20210;-71
2023/10/10 03:10:14;;;;;;;4.03;2.25;;;;;;;8.00;nan;101111.84;2094519;28;20257;-71
2023/10/10 03:11:35;;;;;;;7.35;2.97;;;;;;;7.99;nan;101116.41;2107575;28;20024;-71
2023/10/10 03:12:37;;;;;;;6.07;2.60;;;;;;;8.00;nan;101112.66;2099457;28;20350;-71
2023/10/10 03:14:53;;;;;;;5.03;2.13;;;;;;;7.97;nan;101113.16;2092966;28;20240;-74
2023/10/10 03:16:12;;;;;;;5.25;1.95;;;;;;;7.98;nan;101109.44;2100147;28;20212;-74
2023/10/10 03:20:24;;;;;;;2.70;1.63;;;;;;;7.93;nan;101122.75;2087545;28;20339;-73
2023/10/10 03:21:43;;;;;;;8.07;2.28;;;;;;;7.93;nan;101120.06;2102696;28;20375;-72
2023/10/10 03:24:14;;;;;;;3.28;1.73;;;;;;;7.95;nan;101114.47;2091299;28;20123;-72
2023/10/10 03:25:36;;;;;;;4.93;2.22;;;;;;;7.97;nan;101115.03;2092820;28;20294;-72
2023/10/10 03:28:05;;;;;;;3.15;1.60;;;;;;;7.95;nan;101114.47;2092410;28;20261;-72
2023/10/10 03:29:11;;;;;;;5.97;1.90;;;;;;;7.93;nan;101114.72;2095059;28;20269;-72
2023/10/10 03:30:30;;;;;;;3.75;1.95;;;;;;;7.89;nan;101116.28;2100422;28;20156;-73
2023/10/10 03:31:41;;;;;;;3.47;1.90;;;;;;;7.89;nan;101121.63;2102102;28;20196;-73
2023/10/10 03:33:00;;;;;;;5.30;1.88;;;;;;;7.89;nan;101110.91;2100337;28;21070;-73
2023/10/10 03:35:34;;;;;;;5.35;2.33;;;;;;;7.84;nan;101118.88;2101996;28;20237;-73
2023/10/10 03:36:46;;;;;;;3.65;2.20;;;;;;;7.83;nan;101119.94;2107906;28;20262;-73
2023/10/10 03:38:04;;;;;;;4.03;1.92;;;;;;;7.81;nan;101111.34;2101528;28;20215;-72
2023/10/10 03:39:42;;;;;;;5.30;2.17;;;;;;;7.81;nan;101114.00;2094121;28;20252;-72
2023/10/10 05:24:21;;;;;;;6.13;3.17;;;;;;;8.70;nan;101142.47;2101984;28;20041;-76
2023/10/10 05:25:25;;;;;;;10.85;3.10;;;;;;;8.66;nan;101142.16;2098068;28;20025;-76
2023/10/10 05:26:30;;;;;;;6.90;2.90;;;;;;;8.65;nan;101139.75;2090783;28;20244;-73
2023/10/10 05:27:41;;;;;;;7.38;2.85;;;;;;;8.64;nan;101135.44;2082317;28;20030;-75
2023/10/10 05:28:45;;;;;;;7.38;2.70;;;;;;;8.64;nan;101140.78;2101187;28;20337;-75
2023/10/10 05:29:50;;;;;;;6.80;2.75;;;;;;;8.64;nan;101138.94;2114306;27;21050;-75
2023/10/10 05:30:55;;;;;;;5.72;2.88;;;;;;;8.63;nan;101131.94;2106579;28;20306;-75
2023/10/10 05:31:59;;;;;;;4.93;2.20;;;;;;;8.63;nan;101136.50;2106993;28;20074;-75
2023/10/10 05:33:02;;;;;;;5.65;2.25;;;;;;;8.62;nan;101135.69;2098324;28;21105;-75
2023/10/10 05:34:07;;;;;;;9.18;2.22;;;;;;;8.58;nan;101127.34;2097946;28;20037;-76
2023/10/10 05:35:11;;;;;;;5.90;2.30;;;;;;;8.64;nan;101138.13;2105994;28;20291;-76
2023/10/10 05:36:13;;;;;;;8.40;2.33;;;;;;;8.69;nan;101143.53;2097969;28;20252;-76
2023/10/10 05:37:15;;;;;;;6.18;2.35;;;;;;;8.79;nan;101140.97;2089408;28;20280;-76
2023/10/10 05:38:19;;;;;;;7.53;2.13;;;;;;;8.92;nan;101145.13;2089622;28;20213;-76
2023/10/10 05:39:22;;;;;;;3.83;2.00;;;;;;;9.01;nan;101147.09;2095897;28;20342;-76
2023/10/10 05:40:25;;;;;;;5.68;2.42;;;;;;;9.07;nan;101149.84;2114030;28;20150;-75
2023/10/10 05:41:32;;;;;;;4.35;2.30;;;;;;;9.16;nan;101140.25;2114686;28;20059;-76
2023/10/10 05:42:37;;;;;;;3.47;2.25;;;;;;;9.21;nan;101146.50;2105286;28;20847;-76
2023/10/10 05:43:39;;;;;;;5.93;2.50;;;;;;;9.28;nan;101143.59;2105945;28;20207;-76
2023/10/10 05:44:44;;;;;;;5.22;2.38;;;;;;;9.36;nan;101145.78;2097371;28;20937;-75
2023/10/10 05:45:48;;;;;;;5.25;2.67;;;;;;;9.44;nan;101147.22;2096978;28;20017;-76
2023/10/10 05:46:52;;;;;;;5.95;2.72;;;;;;;9.50;nan;101146.19;2083375;28;20159;-76
2023/10/10 05:47:55;;;;;;;7.32;2.63;;;;;;;9.60;nan;101145.47;2088232;28;20026;-75
2023/10/10 05:48:57;;;;;;;4.88;2.70;;;;;;;9.67;nan;101156.78;2086590;28;20045;-76
2023/10/10 05:49:59;;;;;;;7.80;2.92;;;;;;;9.78;nan;101152.31;2089071;28;20038;-76
2023/10/10 05:51:01;;;;;;;4.32;2.88;;;;;;;9.77;nan;101138.03;2095337;28;20040;-76
2023/10/10 05:52:06;;;;;;;5.82;2.70;;;;;;;9.82;nan;101143.47;2098023;28;20721;-76
2023/10/10 05:53:08;;;;;;;5.68;2.53;;;;;;;9.92;nan;101146.22;2107329;28;20153;-76
2023/10/10 05:54:11;;;;;;;5.85;3.08;;;;;;;10.00;nan;101150.28;2102924;28;20028;-76
2023/10/10 05:55:13;;;;;;;5.30;2.63;;;;;;;10.00;nan;101152.19;2088114;28;20044;-76
2023/10/10 05:56:17;;;;;;;6.28;2.90;;;;;;;10.05;nan;101144.13;2081514;28;20099;-76
2023/10/10 05:57:20;;;;;;;6.53;2.97;;;;;;;10.18;nan;101147.19;2081219;28;20053;-76
2023/10/10 05:58:22;;;;;;;6.57;3.08;;;;;;;10.32;nan;101152.09;2082251;28;20034;-77
2023/10/10 05:59:24;;;;;;;7.45;3.13;;;;;;;10.44;nan;101150.81;2097613;28;20158;-76
2023/10/10 06:00:32;;;;;;;7.32;3.08;;;;;;;10.56;nan;101145.22;2097452;28;20041;-76
2023/10/10 06:01:37;;;;;;;6.40;3.08;;;;;;;10.70;nan;101152.78;2106253;28;20040;-76
2023/10/10 06:02:47;;;;;;;7.18;3.30;;;;;;;10.78;nan;101149.56;2105456;28;20029;-76
2023/10/10 06:03:52;;;;;;;5.57;2.95;;;;;;;10.90;nan;101147.44;2106450;28;20141;-76
2023/10/10 06:04:57;;;;;;;8.95;4.20;;;;;;;10.95;nan;101144.78;2105759;28;20028;-76
2023/10/10 06:06:03;;;;;;;8.02;3.60;;;;;;;11.00;nan;101141.25;2098233;28;20021;-76
2023/10/10 06:07:06;;;;;;;9.75;4.38;;;;;;;11.00;nan;101144.78;2097505;28;20844;-76
2023/10/10 06:08:08;;;;;;;7.30;3.88;;;;;;;10.98;nan;101143.44;2089152;28;20128;-76
2023/10/10 06:09:26;;;;;;;7.78;3.30;;;;;;;11.19;nan;101149.63;2100850;28;20036;-76
2023/10/10 06:10:34;;;;;;;5.95;3.40;;;;;;;11.46;nan;101142.09;2106031;28;20040;-76
2023/10/10 06:11:36;;;;;;;4.38;2.97;;;;;;;11.72;nan;101148.28;2097963;28;20033;-75
2023/10/10 06:12:40;;;;;;;5.80;2.95;;;;;;;11.91;nan;101145.03;2089409;28;20033;-76
2023/10/10 06:13:43;;;;;;;9.07;2.90;;;;;;;12.13;nan;101145.53;2081493;28;20040;-76
2023/10/10 06:14:47;;;;;;;6.65;3.03;;;;;;;12.32;nan;101142.22;2082281;28;20041;-76
2023/10/10 06:15:50;;;;;;;9.20;3.47;;;;;;;12.48;nan;101150.00;2098734;28;20973;-76
2023/10/10 06:16:55;;;;;;;7.32;3.15;;;;;;;12.68;nan;101148.28;2098283;28;20863;-76
2023/10/10 06:18:11;;;;;;;5.22;2.78;;;;;;;12.93;nan;101155.44;2091682;28;20029;-75
2023/10/10 06:19:20;;;;;;;8.70;2.83;;;;;;;12.87;nan;101153.84;2106821;28;20028;-76
2023/10/10 06:20:22;;;;;;;5.07;2.90;;;;;;;13.04;nan;101151.56;2107247;28;20024;-76
2023/10/10 06:21:24;;;;;;;6.38;2.90;;;;;;;13.27;nan;101157.38;2106246;28;20087;-76
2023/10/10 06:22:32;;;;;;;8.02;3.58;;;;;;;13.47;nan;101154.53;2105807;28;20139;-76
2023/10/10 06:23:35;;;;;;;7.18;3.20;;;;;;;13.70;nan;101154.88;2097054;28;20938;-76
2023/10/10 06:24:38;;;;;;;6.03;2.83;;;;;;;13.94;nan;101163.03;2094611;28;20103;-76
2023/10/10 06:25:40;;;;;;;5.32;2.92;;;;;;;14.16;nan;101159.81;2097499;28;20895;-76
2023/10/10 06:26:46;;;;;;;5.22;3.10;;;;;;;14.32;nan;101158.53;2089621;28;20147;-76
2023/10/10 06:27:54;;;;;;;6.78;3.10;;;;;;;14.46;nan;101161.34;2098071;28;20045;-76
2023/10/10 06:29:02;;;;;;;9.27;2.92;;;;;;;14.52;nan;101163.72;2099083;28;20954;-76
2023/10/10 06:30:20;;;;;;;7.20;3.03;;;;;;;14.35;nan;101166.06;2106029;28;20044;-76
2023/10/10 06:31:31;;;;;;;5.03;2.88;;;;;;;14.11;nan;101160.66;2106402;28;20059;-76
2023/10/10 06:32:38;;;;;;;6.90;3.00;;;;;;;13.94;nan;101161.13;2099519;28;20025;-75
2023/10/10 06:33:43;;;;;;;6.88;3.33;;;;;;;13.86;nan;101165.22;2098850;28;20046;-76
2023/10/10 06:34:49;;;;;;;10.32;3.22;;;;;;;13.86;nan;101167.13;2097997;28;20139;-76
2023/10/10 06:35:54;;;;;;;3.92;2.72;;;;;;;13.85;nan;101160.13;2091183;28;20044;-76
2023/10/10 06:36:55;;;;;;;5.45;2.85;;;;;;;14.02;nan;101165.88;2081998;28;20037;-76
2023/10/10 06:37:58;;;;;;;8.38;3.00;;;;;;;14.31;nan;101156.91;2090281;28;20169;-76
2023/10/10 06:39:21;;;;;;;6.25;3.15;;;;;;;14.69;nan;101157.84;2097924;28;20880;-76
2023/10/10 06:40:28;;;;;;;5.13;2.90;;;;;;;15.26;nan;101152.41;2100965;28;20165;-76
2023/10/10 06:41:50;;;;;;;5.75;2.95;;;;;;;15.64;nan;101160.44;2099249;28;20021;-77
2023/10/10 06:42:56;;;;;;;5.50;3.03;;;;;;;15.94;nan;101157.19;2099158;28;20103;-76
2023/10/10 06:43:58;;;;;;;6.63;2.97;;;;;;;16.20;nan;101149.41;2082504;28;20148;-76
2023/10/10 06:45:08;;;;;;;6.55;2.80;;;;;;;16.06;nan;101155.91;2076701;28;20022;-76
2023/10/10 06:46:17;;;;;;;6.60;3.55;;;;;;;15.91;nan;101155.09;2090816;28;20045;-76
2023/10/10 06:47:21;;;;;;;7.72;3.65;;;;;;;16.13;nan;101162.53;2090311;28;20080;-76
2023/10/10 06:48:22;;;;;;;7.53;3.22;;;;;;;16.58;nan;101161.91;2081391;28;20038;-76
2023/10/10 06:49:24;;;;;;;6.63;3.30;;;;;;;16.90;nan;101159.06;2089401;28;20040;-76
2023/10/10 06:50:31;;;;;;;7.25;4.03;;;;;;;16.76;nan;101158.28;2089685;28;20040;-76
2023/10/10 06:51:39;;;;;;;6.70;3.90;;;;;;;16.57;nan;101154.88;2082990;28;20041;-76
2023/10/10 06:52:44;;;;;;;7.25;3.28;;;;;;;16.73;nan;101164.28;2092341;28;20026;-76
2023/10/10 06:53:46;;;;;;;7.15;3.60;;;;;;;17.02;nan;101160.44;2090076;28;20100;-76
2023/10/10 06:54:54;;;;;;;8.65;2.95;;;;;;;16.95;nan;101163.56;2095841;28;20025;-76
2023/10/10 06:56:14;;;;;;;7.18;2.80;;;;;;;16.79;nan;101154.97;2099601;28;20041;-77
2023/10/10 06:57:21;;;;;;;7.10;3.28;;;;;;;16.64;nan;101158.78;2106153;28;20071;-76
2023/10/10 06:58:22;;;;;;;8.25;3.13;;;;;;;16.45;nan;101164.34;2090188;28;20032;-76
2023/10/10 06:59:27;;;;;;;5.93;3.28;;;;;;;16.25;nan;101163.97;2089488;28;20164;-76
2023/10/10 07:00:44;;;;;;;6.93;3.30;;;;;;;15.97;nan;101167.44;2081987;28;20042;-76
2023/10/10 07:01:46;;;;;;;5.85;3.20;;;;;;;15.78;nan;101164.00;2102608;28;21108;-76
2023/10/10 07:02:50;;;;;;;9.98;3.50;;;;;;;15.60;nan;101164.84;2106440;28;20039;-76
2023/10/10 07:03:55;;;;;;;6.10;2.80;;;;;;;15.35;nan;101161.44;2098161;28;20060;-76
2023/10/10 07:04:57;;;;;;;6.78;3.40;;;;;;;15.12;nan;101156.94;2115451;27;20766;-76
2023/10/10 07:06:03;;;;;;;7.22;3.20;;;;;;;14.89;nan;101159.44;2106051;28;20029;-77
2023/10/10 07:07:06;;;;;;;9.07;3.50;;;;;;;14.72;nan;101156.41;2082536;28;20049;-76
2023/10/10 07:08:24;;;;;;;6.35;3.05;;;;;;;14.63;nan;101156.28;2090496;28;20037;-76
2023/10/10 07:09:29;;;;;;;5.28;2.92;;;;;;;14.57;nan;101160.97;2099308;28;20041;-76
2023/10/10 07:10:34;;;;;;;7.38;2.92;;;;;;;14.49;nan;101161.56;2090356;28;20060;-76
2023/10/10 07:11:38;;;;;;;6.45;2.90;;;;;;;14.37;nan;101172.81;2090272;28;20030;-77
2023/10/10 07:12:41;;;;;;;5.30;3.30;;;;;;;14.28;nan;101161.03;2098860;28;20055;-76
2023/10/10 07:13:44;;;;;;;7.75;3.17;;;;;;;14.26;nan;101167.81;2097728;28;20032;-76
2023/10/10 07:14:47;;;;;;;6.32;3.05;;;;;;;14.23;nan;101166.47;2082197;28;20097;-76
2023/10/10 07:15:52;;;;;;;8.85;3.25;;;;;;;14.22;nan;101170.28;2081732;28;20037;-76
2023/10/10 07:16:56;;;;;;;6.40;3.20;;;;;;;14.19;nan;101170.06;2090283;28;20100;-76
2023/10/10 07:18:08;;;;;;;5.28;2.90;;;;;;;14.11;nan;101169.56;2091243;28;20044;-76
2023/10/10 07:19:22;;;;;;;4.70;2.95;;;;;;;14.00;nan;101167.28;2098233;28;20029;-76
2023/10/10 07:21:36;;;;;;;6.30;3.40;;;;;;;13.82;nan;101166.09;2106353;28;20772;-76
2023/10/10 07:22:38;;;;;;;6.35;3.25;;;;;;;13.77;nan;101163.44;2098257;28;20037;-76
2023/10/10 07:25:07;;;;;;;8.25;3.05;;;;;;;13.59;nan;101173.88;2102914;28;20135;-77
2023/10/10 07:26:20;;;;;;;6.53;2.80;;;;;;;13.58;nan;101172.25;2105961;28;20756;-76
2023/10/10 07:27:30;;;;;;;7.47;3.13;;;;;;;13.50;nan;101170.16;2097941;28;20032;-76
2023/10/10 07:28:47;;;;;;;4.82;3.10;;;;;;;13.35;nan;101173.00;2092037;28;20244;-76
2023/10/10 07:30:50;;;;;;;5.97;3.13;;;;;;;13.09;nan;101170.44;2089627;28;20050;-76
2023/10/10 07:32:06;;;;;;;5.85;2.95;;;;;;;12.98;nan;101161.59;2082783;28;20080;-76
2023/10/10 07:33:12;;;;;;;5.35;3.17;;;;;;;12.99;nan;101175.91;2091730;28;20061;-76